Taft, Oklahoma
Current Conditions -  °F | °C
As of 9:53 AM on Saturday 20 Dec 2014 (Local Time) from KMKO Reporting Station
Haze Haze  
Wind Chill: 42°   Ceiling: 2900
Heat Index: 42°   Visibility: 6mi
Dew Point: 38°   Wind: 0mph
Humidity: 85%   Direction: NA
Pressure: 30.28"   Gusts: NA
Location:  35.76°N, 95.55°W
Report Text: KMKO 201553Z AUTO 00000KT 6SM BR FEW007 OVC029 06/03 A3028 RMK AO2 SLP254 T00560033
Loading
Personal Weather Stations






























Interactive Weather Map New forecast layout! Learn more

10-Day Weather Forecast

Advertisements
Track Severe Weather on mobile